Time;durP1;ratioP1;P1;durP2;ratioP2;P2;SDS_P1;SDS_P2;PMS_P1;PMS_P2;Temp;Humidity;BMP_temperature;BMP_pressure;BME280_temperature;BME280_humidity;BME280_pressure;Samples;Min_cycle;Max_cycle;Signal;HPM_P1;HPM_P2
2022/01/19 00:02:22;;;;;;;;;49.00;39.75;19.70;99.90;;;;;;5028355;28;8794;-68
2022/01/19 00:04:49;;;;;;;;;38.25;33.50;19.70;99.90;;;;;;5041729;28;8764;-68
2022/01/19 00:07:16;;;;;;;;;44.25;36.25;19.70;99.90;;;;;;5057211;28;8751;-68
2022/01/19 00:09:42;;;;;;;;;45.75;38.00;19.70;99.90;;;;;;5022262;28;8869;-67
2022/01/19 00:12:09;;;;;;;;;44.25;37.50;19.70;99.90;;;;;;5056803;28;8729;-67
2022/01/19 00:14:36;;;;;;;;;46.75;39.00;19.70;99.90;;;;;;5056253;28;8733;-67
2022/01/19 00:17:03;;;;;;;;;46.50;37.75;19.60;99.90;;;;;;5056266;28;8779;-66
2022/01/19 00:19:30;;;;;;;;;50.75;39.75;19.60;99.90;;;;;;5053190;28;8720;-67
2022/01/19 00:21:56;;;;;;;;;47.75;39.00;19.70;99.90;;;;;;5003380;28;8757;-67
2022/01/19 00:24:23;;;;;;;;;46.25;38.00;19.80;99.90;;;;;;5024694;28;8771;-68
2022/01/19 00:26:50;;;;;;;;;44.25;35.50;19.70;99.90;;;;;;5036472;28;8758;-68
2022/01/19 00:29:16;;;;;;;;;44.50;37.00;19.70;99.90;;;;;;5033935;28;8747;-67
2022/01/19 00:31:43;;;;;;;;;46.75;37.00;19.90;99.90;;;;;;5033760;28;8739;-67
2022/01/19 00:34:09;;;;;;;;;45.00;36.25;19.90;99.90;;;;;;5016481;28;8738;-67
2022/01/19 00:36:36;;;;;;;;;45.50;38.00;19.90;99.90;;;;;;5052591;28;9018;-67
2022/01/19 00:39:03;;;;;;;;;47.50;37.25;19.90;99.90;;;;;;5052987;28;8770;-67
2022/01/19 00:41:30;;;;;;;;;45.00;35.75;19.90;99.90;;;;;;5053480;28;8735;-67
2022/01/19 00:43:56;;;;;;;;;42.50;33.75;19.90;99.90;;;;;;5037674;28;8748;-67
2022/01/19 00:46:23;;;;;;;;;36.25;32.00;20.00;99.90;;;;;;5055933;28;9269;-67
2022/01/19 00:48:52;;;;;;;;;41.00;34.75;20.00;99.90;;;;;;5056243;28;9019;-67
2022/01/19 00:51:19;;;;;;;;;44.75;37.25;20.00;99.90;;;;;;5019059;28;8758;-68
2022/01/19 00:53:46;;;;;;;;;44.50;34.75;20.10;99.90;;;;;;5018229;28;9383;-67
2022/01/19 00:56:12;;;;;;;;;46.75;40.00;20.00;99.90;;;;;;5001186;28;8750;-67
2022/01/19 00:58:39;;;;;;;;;47.75;40.00;20.00;99.90;;;;;;4998367;28;8900;-68
2022/01/19 01:01:06;;;;;;;;;44.75;38.50;20.10;99.90;;;;;;5016268;28;8809;-69
2022/01/19 01:03:33;;;;;;;;;56.25;44.00;20.20;99.90;;;;;;4998838;28;8774;-64
2022/01/19 01:05:59;;;;;;;;;55.00;45.25;20.20;99.90;;;;;;5030354;28;8826;-63
2022/01/19 01:08:26;;;;;;;;;57.75;47.00;20.20;99.90;;;;;;5035018;28;8795;-64
2022/01/19 01:10:53;;;;;;;;;52.75;41.75;20.30;99.90;;;;;;5035088;28;8782;-63
2022/01/19 01:16:16;;;;;;;;;50.25;40.75;20.30;99.90;;;;;;5034731;28;8883;-64
2022/01/19 01:18:43;;;;;;;;;46.25;37.75;20.40;99.90;;;;;;5055791;28;8824;-64
2022/01/19 01:21:10;;;;;;;;;48.00;38.75;20.40;99.90;;;;;;5051573;28;8797;-63
2022/01/19 01:23:37;;;;;;;;;48.50;39.50;20.40;99.90;;;;;;5054480;28;9382;-64
2022/01/19 01:26:04;;;;;;;;;49.75;39.75;20.50;99.90;;;;;;5054590;28;9053;-63
2022/01/19 01:28:31;;;;;;;;;51.50;40.50;20.60;99.90;;;;;;5054184;28;8733;-66
2022/01/19 01:30:58;;;;;;;;;49.50;38.25;20.70;99.90;;;;;;5055283;28;8750;-64
2022/01/19 01:33:24;;;;;;;;;48.50;40.25;20.70;99.90;;;;;;5054270;28;9615;-67
2022/01/19 01:35:51;;;;;;;;;46.75;38.00;20.70;99.90;;;;;;5040584;28;9533;-68
2022/01/19 01:38:18;;;;;;;;;53.25;41.50;20.70;99.90;;;;;;5018334;28;9157;-68
2022/01/19 01:40:45;;;;;;;;;52.75;42.00;20.80;99.90;;;;;;5020581;28;8816;-69
2022/01/19 01:43:11;;;;;;;;;51.00;41.00;20.80;99.90;;;;;;5021309;28;8832;-69
2022/01/19 01:45:41;;;;;;;;;47.50;39.00;20.80;99.90;;;;;;5037039;28;8787;-71
2022/01/19 01:48:13;;;;;;;;;49.00;38.75;20.70;99.90;;;;;;5020918;28;9456;-67
2022/01/19 01:53:27;;;;;;;;;57.25;44.00;20.70;99.90;;;;;;5028054;28;8784;-61
2022/01/19 01:55:58;;;;;;;;;52.50;43.00;20.80;99.90;;;;;;5037068;28;8784;-61
2022/01/19 01:58:26;;;;;;;;;54.25;45.25;20.80;99.90;;;;;;5053451;28;9427;-61
2022/01/19 02:00:53;;;;;;;;;56.00;46.25;20.80;99.90;;;;;;5041452;28;8771;-69
2022/01/19 02:03:20;;;;;;;;;52.00;42.75;20.80;99.90;;;;;;5040032;28;8776;-68
2022/01/19 02:06:33;;;;;;;;;56.50;46.50;20.90;99.90;;;;;;5070778;28;9422;-68
2022/01/19 02:08:41;;;;;;;;;50.50;41.50;21.10;99.90;;;;;;5057585;28;9446;-67
2022/01/19 02:16:46;;;;;;;;;60.00;47.75;21.30;99.90;;;;;;5078678;28;8731;-62
2022/01/19 02:22:03;;;;;;;;;59.50;47.00;21.40;99.90;;;;;;5058737;28;8763;-68
2022/01/19 02:24:42;;;;;;;;;54.50;44.75;21.30;99.90;;;;;;5040667;28;8763;-71
2022/01/19 02:27:14;;;;;;;;;57.50;47.00;21.30;99.90;;;;;;5040267;28;8947;-71
2022/01/19 02:40:36;;;;;;;;;52.00;42.50;21.50;99.90;;;;;;5076723;28;8745;-70
2022/01/19 02:43:08;;;;;;;;;54.75;43.00;21.60;99.90;;;;;;5044126;28;8748;-70
2022/01/19 02:51:07;;;;;;;;;56.50;45.25;21.70;99.90;;;;;;5061137;28;8796;-70
2022/01/19 02:53:38;;;;;;;;;52.50;43.00;21.70;99.90;;;;;;5025562;28;8780;-71
2022/01/19 02:56:12;;;;;;;;;57.25;44.75;21.70;99.90;;;;;;5042321;28;8776;-71
2022/01/19 02:59:12;;;;;;;;;53.00;43.50;21.70;99.90;;;;;;5055412;28;8794;-71
2022/01/19 03:09:45;;;;;;;;;57.00;44.75;21.80;99.90;;;;;;5041084;28;8787;-71
2022/01/19 03:12:12;;;;;;;;;52.00;43.00;22.00;99.90;;;;;;5055733;28;8775;-70
2022/01/19 03:14:39;;;;;;;;;53.25;44.50;22.00;99.90;;;;;;5039242;28;8783;-71
2022/01/19 03:17:06;;;;;;;;;60.50;47.25;22.20;99.90;;;;;;5055374;28;8902;-70
2022/01/19 03:19:33;;;;;;;;;58.50;46.25;22.20;99.90;;;;;;5019335;28;8830;-71
2022/01/19 03:22:00;;;;;;;;;50.00;41.50;22.20;99.90;;;;;;5019612;28;8753;-71
2022/01/19 03:24:37;;;;;;;;;56.25;46.25;22.30;99.90;;;;;;5035201;28;8774;-71
2022/01/19 03:27:04;;;;;;;;;56.00;45.50;22.40;99.90;;;;;;5036633;28;8786;-71
2022/01/19 03:29:31;;;;;;;;;61.75;49.25;22.50;99.90;;;;;;5035469;28;8785;-70
2022/01/19 03:31:58;;;;;;;;;57.25;46.75;22.40;99.90;;;;;;5035862;28;9012;-70
2022/01/19 03:34:24;;;;;;;;;56.25;45.25;22.40;99.90;;;;;;5033642;28;8770;-70
2022/01/19 03:36:51;;;;;;;;;51.00;43.50;22.50;99.90;;;;;;5031522;28;8779;-70
2022/01/19 03:39:18;;;;;;;;;57.25;44.50;22.50;99.90;;;;;;5010617;28;9132;-70
2022/01/19 03:41:44;;;;;;;;;52.50;44.00;22.60;99.90;;;;;;5007177;28;8788;-70
2022/01/19 03:44:11;;;;;;;;;52.75;43.50;22.60;99.90;;;;;;5024024;28;8774;-70
2022/01/19 03:46:53;;;;;;;;;53.75;44.25;22.80;99.90;;;;;;5019937;28;9425;-70
2022/01/19 03:49:24;;;;;;;;;54.50;42.75;22.80;99.90;;;;;;5018271;28;8733;-70
2022/01/19 03:52:01;;;;;;;;;51.75;43.75;22.90;99.90;;;;;;5023434;28;9709;-70
2022/01/19 03:54:29;;;;;;;;;52.00;42.25;23.00;99.90;;;;;;5056173;28;8944;-70
2022/01/19 03:56:56;;;;;;;;;53.50;44.50;23.10;99.90;;;;;;5038234;28;8830;-70
2022/01/19 03:59:23;;;;;;;;;54.00;45.00;23.20;99.90;;;;;;5038338;28;8760;-69
2022/01/19 04:01:53;;;;;;;;;56.00;45.25;23.30;99.90;;;;;;5072146;28;8766;-69
2022/01/19 04:06:58;;;;;;;;;54.75;44.75;23.30;99.90;;;;;;5058548;28;8861;-70
2022/01/19 04:09:25;;;;;;;;;57.25;43.75;23.40;99.90;;;;;;5027322;28;8788;-70
2022/01/19 04:11:52;;;;;;;;;56.75;46.25;23.40;99.90;;;;;;5024595;28;8755;-70
2022/01/19 04:14:22;;;;;;;;;59.00;48.50;23.40;99.90;;;;;;5073567;28;8762;-70
2022/01/19 04:16:52;;;;;;;;;55.25;43.75;23.40;99.90;;;;;;5039368;28;8800;-69
2022/01/19 04:21:49;;;;;;;;;63.75;50.00;23.20;99.90;;;;;;5057558;28;8746;-69
2022/01/19 04:24:16;;;;;;;;;62.25;49.75;23.10;99.90;;;;;;5021476;28;8884;-68
2022/01/19 04:26:44;;;;;;;;;66.00;50.75;23.10;99.90;;;;;;5026253;28;8768;-69
2022/01/19 04:29:11;;;;;;;;;64.25;49.50;23.10;99.90;;;;;;5031674;28;8786;-68
2022/01/19 04:31:38;;;;;;;;;62.00;50.50;23.20;99.90;;;;;;5033741;28;8745;-69
2022/01/19 04:34:06;;;;;;;;;61.25;50.00;23.10;99.90;;;;;;5016082;28;8818;-69
2022/01/19 04:36:48;;;;;;;;;59.00;48.00;23.10;99.90;;;;;;5010508;28;9456;-68
2022/01/19 04:48:09;;;;;;;;;64.50;49.00;23.50;99.90;;;;;;5009099;28;8776;-67
2022/01/19 05:04:45;;;;;;;;;56.25;45.00;24.40;99.90;;;;;;5071663;28;8754;-65
2022/01/19 05:07:18;;;;;;;;;57.50;45.25;24.40;99.90;;;;;;5051441;28;8817;-65
2022/01/19 05:15:05;;;;;;;;;58.50;46.50;24.70;99.90;;;;;;5050546;28;9104;-65
2022/01/19 05:17:32;;;;;;;;;55.50;45.50;24.80;99.90;;;;;;5050954;28;8871;-64
2022/01/19 05:19:59;;;;;;;;;49.25;41.50;24.90;99.90;;;;;;5039469;28;8785;-65
2022/01/19 05:22:26;;;;;;;;;54.50;45.00;25.00;99.90;;;;;;5037715;28;8765;-67
2022/01/19 05:24:52;;;;;;;;;54.00;43.75;25.10;99.90;;;;;;5073340;28;8768;-66
2022/01/19 05:27:21;;;;;;;;;53.25;42.25;25.10;99.90;;;;;;5050994;28;8811;-65
2022/01/19 05:29:49;;;;;;;;;53.00;40.75;25.20;99.90;;;;;;5041767;28;8762;-65
2022/01/19 05:32:15;;;;;;;;;54.00;44.00;25.20;99.90;;;;;;5058444;28;9337;-65
2022/01/19 05:34:42;;;;;;;;;55.50;42.75;25.20;99.90;;;;;;5076452;28;8763;-65
2022/01/19 05:37:09;;;;;;;;;50.50;42.00;25.20;99.90;;;;;;5077670;28;8746;-66
2022/01/19 05:39:36;;;;;;;;;49.50;39.50;25.40;99.90;;;;;;5042053;28;8938;-65
2022/01/19 05:42:03;;;;;;;;;46.25;36.25;25.50;99.90;;;;;;5058736;28;8774;-65
2022/01/19 05:44:29;;;;;;;;;54.75;43.00;25.60;99.90;;;;;;5058206;28;8823;-65
2022/01/19 05:46:56;;;;;;;;;52.75;44.75;25.60;99.90;;;;;;5042087;28;8928;-65
2022/01/19 05:49:23;;;;;;;;;38.50;34.75;25.50;99.90;;;;;;5058889;28;8746;-66
2022/01/19 05:51:50;;;;;;;;;46.75;38.50;25.60;99.90;;;;;;5068195;28;8786;-66
2022/01/19 05:54:20;;;;;;;;;48.50;40.25;25.70;99.90;;;;;;5058259;28;8761;-65
2022/01/19 05:56:46;;;;;;;;;48.75;40.75;25.80;99.90;;;;;;5042087;28;9407;-66
2022/01/19 05:59:13;;;;;;;;;48.25;39.25;25.90;99.90;;;;;;5075759;28;8774;-65
2022/01/19 06:01:40;;;;;;;;;47.50;39.50;25.90;99.90;;;;;;5040678;28;8738;-65
2022/01/19 06:04:07;;;;;;;;;52.00;43.75;26.00;99.90;;;;;;5076576;28;9442;-66
2022/01/19 06:06:34;;;;;;;;;45.50;37.75;26.10;99.90;;;;;;5076039;28;9190;-65
2022/01/19 06:09:08;;;;;;;;;48.00;38.25;26.10;99.90;;;;;;5059686;28;8753;-65
2022/01/19 06:11:35;;;;;;;;;50.50;40.75;26.20;99.90;;;;;;5077835;28;8848;-65
2022/01/19 06:14:02;;;;;;;;;48.00;42.00;26.20;99.90;;;;;;5060381;28;9177;-65
2022/01/19 06:16:28;;;;;;;;;51.25;40.25;26.10;99.90;;;;;;5058457;28;8730;-64
2022/01/19 06:18:55;;;;;;;;;49.50;41.50;26.00;99.90;;;;;;5060712;28;8733;-64
2022/01/19 06:21:21;;;;;;;;;51.75;40.75;25.80;99.90;;;;;;5040449;28;8760;-64
2022/01/19 06:23:48;;;;;;;;;52.25;41.75;25.60;99.90;;;;;;5058117;28;8740;-63
2022/01/19 06:26:15;;;;;;;;;49.00;40.75;25.60;99.90;;;;;;5058043;28;8740;-63
2022/01/19 06:28:42;;;;;;;;;52.75;40.50;25.70;99.90;;;;;;5057847;28;8835;-63
2022/01/19 06:31:08;;;;;;;;;52.50;43.00;25.80;99.90;;;;;;5057975;28;8788;-64
2022/01/19 06:33:35;;;;;;;;;52.50;42.00;26.00;99.90;;;;;;5058458;28;9424;-63
2022/01/19 06:36:02;;;;;;;;;46.50;38.50;26.20;99.90;;;;;;5055453;28;8735;-63
2022/01/19 06:38:29;;;;;;;;;49.25;40.75;26.30;99.90;;;;;;5027424;28;8848;-63
2022/01/19 06:40:55;;;;;;;;;51.00;41.00;26.20;99.90;;;;;;5060461;28;9513;-63
2022/01/19 06:43:22;;;;;;;;;51.50;40.75;26.20;99.90;;;;;;5042822;28;8764;-63
2022/01/19 06:45:49;;;;;;;;;51.75;40.50;26.10;99.90;;;;;;5059682;28;8746;-63
2022/01/19 06:48:16;;;;;;;;;51.25;42.00;26.10;99.90;;;;;;5043043;28;8718;-63
2022/01/19 06:50:42;;;;;;;;;50.50;40.50;26.00;99.90;;;;;;5060249;28;8710;-63
2022/01/19 06:53:09;;;;;;;;;49.75;39.00;26.20;99.90;;;;;;5043258;28;8761;-63
2022/01/19 06:55:36;;;;;;;;;51.50;40.50;26.40;99.90;;;;;;5059582;28;8766;-64
2022/01/19 06:58:03;;;;;;;;;49.25;41.25;26.50;99.90;;;;;;5077759;28;8763;-63
2022/01/19 07:00:29;;;;;;;;;48.25;39.00;26.50;99.90;;;;;;5076143;28;8774;-64
2022/01/19 07:02:56;;;;;;;;;50.00;41.00;26.60;99.90;;;;;;5074267;28;9477;-63
2022/01/19 07:05:23;;;;;;;;;51.25;40.75;26.50;99.90;;;;;;5040775;28;8770;-64
2022/01/19 07:07:52;;;;;;;;;45.25;38.00;26.40;99.90;;;;;;5057269;28;8777;-63
2022/01/19 07:10:19;;;;;;;;;46.00;38.25;26.20;99.90;;;;;;5075196;28;8746;-64
2022/01/19 07:12:45;;;;;;;;;50.75;40.75;26.20;99.90;;;;;;5074232;28;8788;-63
2022/01/19 07:15:12;;;;;;;;;46.00;39.00;26.20;99.90;;;;;;5056772;28;8773;-63
2022/01/19 07:17:39;;;;;;;;;51.75;42.25;26.40;99.90;;;;;;5074167;28;9296;-63
2022/01/19 07:20:06;;;;;;;;;47.25;40.25;26.50;99.90;;;;;;5061340;28;8772;-63
2022/01/19 07:22:33;;;;;;;;;46.50;39.75;26.50;99.90;;;;;;5053582;28;8736;-64
2022/01/19 07:25:00;;;;;;;;;46.00;38.75;26.60;99.90;;;;;;5054926;28;8744;-64
2022/01/19 07:27:27;;;;;;;;;48.00;40.25;26.70;99.90;;;;;;5053956;28;8997;-64
2022/01/19 07:29:53;;;;;;;;;45.75;37.00;26.80;99.90;;;;;;5053849;28;8756;-64
2022/01/19 07:32:22;;;;;;;;;48.00;39.00;26.90;99.90;;;;;;5036574;28;8783;-63
2022/01/19 07:34:49;;;;;;;;;46.00;38.75;26.80;99.90;;;;;;5072670;28;8778;-64
2022/01/19 07:37:16;;;;;;;;;43.50;35.50;26.70;99.90;;;;;;5057467;28;8777;-64
2022/01/19 07:39:42;;;;;;;;;51.00;40.50;26.50;99.90;;;;;;5056468;28;8738;-64
2022/01/19 07:42:09;;;;;;;;;47.00;39.50;26.50;99.90;;;;;;5073791;28;8758;-64
2022/01/19 07:44:36;;;;;;;;;47.50;36.75;26.40;99.90;;;;;;5056591;28;8868;-64
2022/01/19 07:47:03;;;;;;;;;51.50;41.75;26.40;99.90;;;;;;5074169;28;8758;-64
2022/01/19 07:49:29;;;;;;;;;47.75;39.25;26.30;99.90;;;;;;5055817;28;9561;-64
2022/01/19 07:51:56;;;;;;;;;50.25;41.50;26.20;99.90;;;;;;5038999;28;8738;-64
2022/01/19 07:54:23;;;;;;;;;48.75;39.25;26.20;99.90;;;;;;5073745;28;8820;-64
2022/01/19 07:56:50;;;;;;;;;47.25;40.25;26.20;99.90;;;;;;5073697;28;8753;-64
2022/01/19 07:59:17;;;;;;;;;47.00;40.00;26.10;99.90;;;;;;5074126;28;8754;-64
2022/01/19 08:01:44;;;;;;;;;52.75;43.00;26.20;99.90;;;;;;5073846;28;8830;-63
2022/01/19 08:04:11;;;;;;;;;51.25;41.00;26.10;99.90;;;;;;5074505;28;8872;-64
2022/01/19 08:06:37;;;;;;;;;52.00;40.00;26.00;99.90;;;;;;5055782;28;9435;-64
2022/01/19 08:09:05;;;;;;;;;46.75;40.00;26.00;99.90;;;;;;5073363;28;8870;-64
2022/01/19 08:11:31;;;;;;;;;52.50;42.25;26.10;99.90;;;;;;5073413;28;9072;-64
2022/01/19 08:13:58;;;;;;;;;54.25;43.50;26.20;99.90;;;;;;5039159;28;9568;-63
2022/01/19 08:16:25;;;;;;;;;51.75;41.00;26.40;99.90;;;;;;5055455;28;8789;-65
2022/01/19 08:18:51;;;;;;;;;46.25;39.25;26.50;99.90;;;;;;5074520;28;8715;-64
2022/01/19 08:21:18;;;;;;;;;50.00;41.75;26.50;99.90;;;;;;5055141;28;8750;-64
2022/01/19 08:23:45;;;;;;;;;53.50;43.00;26.60;99.90;;;;;;5056372;28;8738;-64
2022/01/19 08:26:13;;;;;;;;;50.50;43.25;26.70;99.90;;;;;;5058315;28;8750;-64
2022/01/19 08:28:40;;;;;;;;;51.00;39.75;26.80;99.90;;;;;;5075638;28;8711;-63
2022/01/19 08:31:06;;;;;;;;;50.00;40.50;26.80;99.90;;;;;;5058959;28;8730;-64
2022/01/19 08:33:33;;;;;;;;;54.00;42.50;26.80;99.90;;;;;;5057753;28;8781;-64
2022/01/19 08:36:00;;;;;;;;;51.00;40.00;26.80;99.90;;;;;;5075890;28;8722;-64
2022/01/19 08:38:26;;;;;;;;;50.50;42.75;26.80;99.90;;;;;;5057531;28;8823;-64
2022/01/19 08:40:55;;;;;;;;;51.50;42.75;26.80;99.90;;;;;;5047986;28;8757;-64
2022/01/19 08:43:22;;;;;;;;;48.25;39.50;26.70;99.90;;;;;;5076057;28;8750;-65
2022/01/19 08:45:49;;;;;;;;;49.75;40.00;26.70;99.90;;;;;;5075712;28;8835;-64
2022/01/19 08:48:17;;;;;;;;;36.75;34.25;26.60;99.90;;;;;;5039314;28;8887;-64
2022/01/19 08:50:44;;;;;;;;;48.25;37.75;26.50;99.90;;;;;;5074964;28;9462;-64
2022/01/19 08:53:10;;;;;;;;;56.75;46.50;26.50;99.90;;;;;;5075993;28;8802;-64
2022/01/19 08:55:37;;;;;;;;;47.25;39.25;26.40;99.90;;;;;;5041705;28;8792;-64
2022/01/19 08:58:05;;;;;;;;;46.25;38.25;26.40;99.90;;;;;;5076952;28;8774;-64
2022/01/19 09:00:32;;;;;;;;;44.75;37.00;26.40;99.90;;;;;;5041310;28;8750;-64
2022/01/19 09:02:58;;;;;;;;;51.25;42.25;26.40;99.90;;;;;;5043712;28;8754;-64
2022/01/19 09:05:25;;;;;;;;;49.50;40.75;26.40;99.90;;;;;;5079471;28;8754;-64
2022/01/19 09:07:53;;;;;;;;;52.50;41.25;26.50;99.90;;;;;;5061874;28;8774;-64
2022/01/19 09:10:21;;;;;;;;;46.50;39.50;26.50;99.90;;;;;;5079947;28;8723;-64
2022/01/19 09:12:48;;;;;;;;;51.00;42.25;26.50;99.90;;;;;;5079743;28;8738;-63
2022/01/19 09:15:17;;;;;;;;;50.00;39.25;26.70;99.90;;;;;;5061886;28;8774;-64
2022/01/19 09:17:44;;;;;;;;;49.75;39.50;26.80;99.90;;;;;;5079761;28;8896;-64
2022/01/19 09:20:12;;;;;;;;;47.25;40.25;26.80;99.90;;;;;;5061617;28;8770;-64
2022/01/19 09:22:38;;;;;;;;;49.00;40.50;26.80;99.90;;;;;;5045191;28;8766;-64
2022/01/19 09:25:06;;;;;;;;;47.75;40.00;26.70;99.90;;;;;;5080567;28;8731;-64
2022/01/19 09:27:33;;;;;;;;;51.00;41.50;26.70;99.90;;;;;;5079309;28;8745;-64
2022/01/19 09:30:00;;;;;;;;;47.50;38.25;26.70;99.90;;;;;;5079536;28;8794;-64
2022/01/19 09:32:28;;;;;;;;;51.25;40.25;26.60;99.90;;;;;;5060757;28;8770;-64
2022/01/19 09:34:58;;;;;;;;;49.00;40.00;26.60;99.90;;;;;;5061484;28;8761;-63
2022/01/19 09:37:25;;;;;;;;;46.25;34.50;26.60;99.90;;;;;;5062469;28;8715;-64
2022/01/19 09:39:52;;;;;;;;;47.00;35.75;26.50;99.90;;;;;;5045530;28;8744;-63
2022/01/19 09:42:18;;;;;;;;;39.50;33.00;26.30;99.90;;;;;;5079086;28;8732;-63
2022/01/19 09:44:45;;;;;;;;;39.00;33.50;26.20;99.90;;;;;;5061836;28;8829;-63
2022/01/19 09:47:12;;;;;;;;;40.00;31.25;26.10;99.90;;;;;;5079136;28;8780;-63
2022/01/19 09:49:39;;;;;;;;;37.75;33.00;26.00;99.90;;;;;;5060891;28;8842;-63
2022/01/19 09:52:05;;;;;;;;;42.50;35.00;26.00;99.90;;;;;;5079703;28;8795;-63
2022/01/19 09:54:32;;;;;;;;;47.25;36.75;25.90;99.90;;;;;;5078626;28;8753;-63
2022/01/19 09:56:59;;;;;;;;;43.00;35.00;25.80;99.90;;;;;;5060951;28;9453;-63
2022/01/19 09:59:26;;;;;;;;;38.25;34.00;25.70;99.90;;;;;;5077219;28;8746;-63
2022/01/19 10:02:07;;;;;;;;;42.50;34.75;25.60;99.90;;;;;;5061246;28;8746;-63
2022/01/19 10:04:41;;;;;;;;;32.25;29.00;25.60;99.90;;;;;;5078306;28;8738;-63
2022/01/19 10:07:24;;;;;;;;;35.25;31.50;25.50;99.90;;;;;;5061768;28;8734;-63
2022/01/19 10:09:56;;;;;;;;;34.50;30.00;25.50;99.90;;;;;;5060579;28;9643;-63
2022/01/19 10:18:12;;;;;;;;;33.25;30.50;25.40;99.90;;;;;;5067544;28;8769;-63
2022/01/19 10:20:39;;;;;;;;;27.25;25.00;25.30;99.90;;;;;;5078078;28;8782;-63
2022/01/19 10:23:06;;;;;;;;;34.25;30.25;25.30;99.90;;;;;;5078620;28;8753;-63
2022/01/19 10:25:52;;;;;;;;;36.00;28.50;25.20;99.90;;;;;;5078125;28;8741;-63
2022/01/19 10:28:19;;;;;;;;;26.00;25.75;25.20;99.90;;;;;;5079106;28;8746;-63
2022/01/19 10:30:46;;;;;;;;;38.25;33.25;25.10;99.90;;;;;;5060945;28;8746;-63
2022/01/19 10:33:17;;;;;;;;;43.00;34.50;25.10;99.90;;;;;;5078489;28;9484;-63
2022/01/19 10:35:46;;;;;;;;;35.75;31.25;25.00;99.90;;;;;;5060507;28;9282;-63
2022/01/19 10:38:19;;;;;;;;;42.75;35.50;25.00;99.90;;;;;;5060503;28;8785;-63
2022/01/19 10:41:06;;;;;;;;;39.25;33.25;25.00;99.90;;;;;;5078223;28;8789;-63
2022/01/19 10:43:45;;;;;;;;;32.75;31.50;25.00;99.90;;;;;;5078098;28;8738;-64
2022/01/19 10:46:33;;;;;;;;;43.00;36.75;24.90;99.90;;;;;;5061164;28;8812;-64
2022/01/19 10:49:05;;;;;;;;;46.00;36.50;24.90;99.90;;;;;;5078829;28;8734;-63
2022/01/19 10:51:58;;;;;;;;;44.50;36.25;24.90;99.90;;;;;;5077290;28;8875;-64
2022/01/19 10:54:27;;;;;;;;;38.50;34.25;24.80;99.90;;;;;;5076173;28;8844;-64
2022/01/19 10:56:57;;;;;;;;;43.25;36.00;24.70;99.90;;;;;;5077574;28;8742;-64
2022/01/19 10:59:29;;;;;;;;;43.25;36.25;24.60;99.90;;;;;;5043188;28;8827;-63
2022/01/19 11:01:58;;;;;;;;;46.75;39.25;24.40;99.90;;;;;;5077943;28;8836;-63
2022/01/19 11:04:25;;;;;;;;;46.25;37.50;24.30;99.90;;;;;;5076976;28;8742;-64
2022/01/19 11:06:55;;;;;;;;;45.50;37.50;24.20;99.90;;;;;;5078043;28;8753;-63
2022/01/19 11:09:25;;;;;;;;;388.25;381.25;24.10;99.90;;;;;;5076839;28;9458;-63
2022/01/19 11:11:53;;;;;;;;;54.00;42.50;23.90;99.90;;;;;;5059560;28;8762;-63
2022/01/19 11:14:19;;;;;;;;;56.50;44.25;23.80;99.90;;;;;;5077003;28;8750;-63
2022/01/19 11:16:48;;;;;;;;;48.50;38.75;23.70;99.90;;;;;;5077215;28;8742;-63
2022/01/19 11:19:15;;;;;;;;;50.50;41.50;23.70;99.90;;;;;;5043809;28;8762;-63
2022/01/19 11:21:47;;;;;;;;;51.00;40.00;23.60;99.90;;;;;;5057469;28;9493;-63
2022/01/19 11:24:25;;;;;;;;;46.50;37.75;23.70;99.90;;;;;;5055864;28;9089;-63
2022/01/19 11:26:54;;;;;;;;;50.50;39.75;23.70;99.90;;;;;;5057053;28;8745;-63
2022/01/19 11:29:22;;;;;;;;;45.00;37.25;23.80;99.90;;;;;;5038904;28;8795;-63
2022/01/19 11:31:51;;;;;;;;;53.25;42.50;23.80;99.90;;;;;;5055784;28;9452;-63
2022/01/19 11:34:38;;;;;;;;;56.75;45.00;23.70;99.90;;;;;;5056526;28;8837;-63
2022/01/19 11:37:05;;;;;;;;;54.25;44.75;23.60;99.90;;;;;;5077888;28;8738;-63
2022/01/19 11:39:31;;;;;;;;;56.50;45.00;23.60;99.90;;;;;;5076731;28;8773;-63
2022/01/19 11:41:59;;;;;;;;;47.50;39.50;23.60;99.90;;;;;;5076848;28;8734;-63
2022/01/19 11:44:32;;;;;;;;;53.50;43.00;23.60;99.90;;;;;;5059256;28;8769;-63
2022/01/19 11:47:17;;;;;;;;;53.25;42.50;23.60;99.90;;;;;;5076782;28;8738;-63
2022/01/19 11:49:50;;;;;;;;;53.00;43.50;23.60;99.90;;;;;;5077085;28;8875;-63
2022/01/19 11:52:22;;;;;;;;;47.50;39.50;23.50;99.90;;;;;;5060890;28;8742;-63
2022/01/19 11:54:51;;;;;;;;;49.75;41.50;23.40;99.90;;;;;;5076560;28;8797;-63
2022/01/19 11:57:28;;;;;;;;;51.75;41.50;23.30;99.90;;;;;;5076169;28;8760;-63
2022/01/19 11:59:57;;;;;;;;;45.50;38.75;23.30;99.90;;;;;;5076812;28;8763;-63
2022/01/19 12:02:32;;;;;;;;;49.25;38.75;23.40;99.90;;;;;;5055163;28;8763;-63
2022/01/19 12:04:59;;;;;;;;;47.75;40.25;23.40;99.90;;;;;;5061140;28;9501;-63
2022/01/19 12:07:38;;;;;;;;;50.50;42.25;23.50;99.90;;;;;;5058186;28;8731;-64
2022/01/19 12:10:19;;;;;;;;;49.00;40.00;23.40;99.90;;;;;;5077582;28;8814;-63
2022/01/19 12:13:09;;;;;;;;;50.00;42.00;23.40;99.90;;;;;;5058444;28;8879;-63
2022/01/19 12:16:00;;;;;;;;;47.50;41.25;23.30;99.90;;;;;;5060094;28;8742;-63
2022/01/19 12:18:39;;;;;;;;;48.25;37.50;23.20;99.90;;;;;;5058962;28;8743;-63
2022/01/19 12:21:06;;;;;;;;;43.25;36.00;23.20;99.90;;;;;;5076739;28;8715;-63
2022/01/19 12:23:37;;;;;;;;;45.25;38.00;23.10;99.90;;;;;;5076057;28;9529;-63
2022/01/19 12:26:06;;;;;;;;;46.00;36.50;23.10;99.90;;;;;;5076266;28;8747;-63
2022/01/19 12:28:40;;;;;;;;;48.50;40.00;23.00;99.90;;;;;;5025947;28;8865;-63
2022/01/19 12:31:25;;;;;;;;;47.50;38.50;23.00;99.90;;;;;;5077729;28;8719;-63
2022/01/19 12:34:04;;;;;;;;;55.50;44.25;22.90;99.90;;;;;;5076675;28;8889;-63
2022/01/19 12:36:41;;;;;;;;;51.75;41.00;22.90;99.90;;;;;;5075880;28;9060;-63
2022/01/19 12:39:26;;;;;;;;;51.25;41.50;22.90;99.90;;;;;;5080611;28;8758;-63
2022/01/19 12:42:00;;;;;;;;;54.75;43.25;22.80;99.90;;;;;;5080552;28;8734;-63
2022/01/19 12:44:36;;;;;;;;;48.50;40.50;22.80;99.90;;;;;;5062499;28;8762;-63
2022/01/19 12:47:04;;;;;;;;;52.25;41.00;22.80;99.90;;;;;;5080242;28;8750;-63
2022/01/19 12:49:31;;;;;;;;;50.50;42.50;22.70;99.90;;;;;;5045504;28;8758;-63
2022/01/19 12:51:59;;;;;;;;;51.75;43.25;22.70;99.90;;;;;;5080323;28;8892;-63
2022/01/19 12:54:27;;;;;;;;;50.50;40.50;22.70;99.90;;;;;;5079731;28;8870;-63
2022/01/19 12:56:59;;;;;;;;;50.25;41.00;22.70;99.90;;;;;;5080081;28;8789;-63
2022/01/19 12:59:25;;;;;;;;;49.00;39.50;22.60;99.90;;;;;;5079683;28;8735;-63
2022/01/19 13:01:52;;;;;;;;;49.50;39.25;22.60;99.90;;;;;;5045503;28;8758;-63
2022/01/19 13:04:26;;;;;;;;;47.50;40.50;22.60;99.90;;;;;;5080212;28;8841;-63
2022/01/19 13:06:55;;;;;;;;;55.00;43.25;22.50;99.90;;;;;;5045236;28;8873;-63
2022/01/19 13:09:32;;;;;;;;;55.50;44.25;22.50;99.90;;;;;;5062192;28;8786;-63
2022/01/19 13:12:01;;;;;;;;;51.00;40.50;22.50;99.90;;;;;;5079772;28;8761;-63
2022/01/19 13:14:29;;;;;;;;;57.00;46.00;22.50;99.90;;;;;;5045563;28;8919;-63
2022/01/19 13:16:56;;;;;;;;;50.75;41.75;22.50;99.90;;;;;;5079528;28;8762;-63
2022/01/19 13:19:26;;;;;;;;;50.00;41.25;22.50;99.90;;;;;;5079931;28;8742;-63
2022/01/19 13:22:02;;;;;;;;;54.25;43.25;22.50;99.90;;;;;;5061793;28;9741;-63
2022/01/19 13:24:31;;;;;;;;;51.75;43.00;22.50;99.90;;;;;;5079510;28;8773;-63
2022/01/19 13:27:03;;;;;;;;;58.25;44.00;22.50;99.90;;;;;;5079447;28;8827;-63
2022/01/19 13:29:47;;;;;;;;;54.75;42.00;22.40;99.90;;;;;;5061180;28;8803;-63
2022/01/19 13:32:19;;;;;;;;;56.75;43.25;22.40;99.90;;;;;;5079918;28;8761;-63
2022/01/19 13:35:04;;;;;;;;;52.25;42.25;22.40;99.90;;;;;;5061904;28;8789;-63
2022/01/19 13:37:38;;;;;;;;;52.50;42.00;22.30;99.90;;;;;;5062658;28;8753;-63
2022/01/19 13:40:09;;;;;;;;;48.25;40.75;22.30;99.90;;;;;;5063671;28;8752;-63
2022/01/19 13:42:41;;;;;;;;;53.25;44.00;22.30;99.90;;;;;;5079018;28;8807;-63
2022/01/19 13:45:29;;;;;;;;;59.25;45.50;22.20;99.90;;;;;;5079450;28;8782;-63
2022/01/19 13:50:45;;;;;;;;;55.75;48.00;21.90;99.90;;;;;;5078527;28;8814;-63
2022/01/19 13:53:13;;;;;;;;;58.00;46.75;21.70;99.90;;;;;;5079289;28;8811;-63
2022/01/19 13:55:40;;;;;;;;;56.75;45.00;21.60;99.90;;;;;;5078697;28;8748;-63
2022/01/19 13:58:14;;;;;;;;;62.25;49.00;21.60;99.90;;;;;;5041265;28;8766;-63
2022/01/19 14:00:53;;;;;;;;;57.50;44.25;21.70;99.90;;;;;;5058742;28;8774;-63
2022/01/19 14:03:24;;;;;;;;;53.75;42.50;21.80;99.90;;;;;;5055016;28;8767;-64
2022/01/19 14:05:54;;;;;;;;;56.25;44.75;21.70;99.90;;;;;;5057494;28;8805;-63
2022/01/19 14:08:36;;;;;;;;;55.00;44.00;21.70;99.90;;;;;;5057613;28;9435;-63